Harristown, Illinois
Current Conditions -  °F | °C
As of 4:54 AM on Saturday 25 Oct 2014 (Local Time) from KDEC Reporting Station
Clear Clear  
Wind Chill: 58°   Ceiling: Unl
Heat Index: 58°   Visibility: 10mi
Dew Point: 53°   Wind: 8mph
Humidity: 84%   Direction: 270°W
Pressure: 29.96"   Gusts: NA
Location:  39.85°N, 89.08°W
Report Text: KDEC 250954Z AUTO 27007KT 10SM CLR 14/12 A2996 RMK AO2 SLP145 T01440117 TSNO
Loading
Personal Weather Stations






























Interactive Weather Map
Tropical Storm Tracking
New forecast layout! Learn more

10-Day Weather Forecast

Advertisements
Track Severe Weather on mobile